createdAt,value
2023-03-24T00:14:26.418Z,11.8
2023-03-24T00:29:26.444Z,11.6
2023-03-24T00:44:26.447Z,11.6
2023-03-24T00:59:26.444Z,11.6
2023-03-24T01:14:26.419Z,11.7
2023-03-24T01:29:26.409Z,11.8
2023-03-24T01:44:26.428Z,11.9
2023-03-24T01:59:26.422Z,12.1
2023-03-24T02:14:26.411Z,12.6
2023-03-24T02:29:26.445Z,12.8
2023-03-24T02:44:26.430Z,12.6
2023-03-24T02:59:26.461Z,12.8
2023-03-24T03:14:26.430Z,12.6
2023-03-24T03:29:26.439Z,12.1
2023-03-24T03:44:26.449Z,12.1
2023-03-24T03:59:26.428Z,11.6
2023-03-24T04:14:26.434Z,11.4
2023-03-24T04:29:26.423Z,11.3
2023-03-24T04:44:26.411Z,10.9
2023-03-24T04:59:26.427Z,10.4
2023-03-24T05:14:26.425Z,9.9
2023-03-24T05:29:26.431Z,9.5
2023-03-24T05:44:26.391Z,9.2
2023-03-24T05:59:26.432Z,9
2023-03-24T06:14:26.434Z,8.8
2023-03-24T06:29:26.427Z,8.9
2023-03-24T06:44:26.421Z,9
2023-03-24T06:59:26.426Z,9.1
2023-03-24T07:14:26.600Z,9.3
2023-03-24T07:29:26.421Z,9.8
2023-03-24T07:44:26.409Z,9.8
2023-03-24T07:59:26.781Z,10
2023-03-24T08:14:26.430Z,9.9
2023-03-24T08:29:26.428Z,10.2
2023-03-24T08:44:26.429Z,10.5
2023-03-24T08:59:26.446Z,10.8
2023-03-24T09:14:26.433Z,10.8
2023-03-24T09:29:26.427Z,11.4
2023-03-24T09:44:26.438Z,11.5
2023-03-24T09:59:26.414Z,11.6
2023-03-24T10:14:26.430Z,11.8
2023-03-24T10:29:26.399Z,12.3
2023-03-24T10:44:26.425Z,12.7
2023-03-24T10:59:26.435Z,13.2
2023-03-24T11:14:26.434Z,13
2023-03-24T11:29:26.431Z,13.2
2023-03-24T11:44:26.433Z,13.2
2023-03-24T11:59:26.439Z,13.9
2023-03-24T12:14:26.418Z,14.6
2023-03-24T12:29:26.425Z,14.1
2023-03-24T12:44:26.433Z,13.6
2023-03-24T12:59:26.413Z,14
2023-03-24T13:14:26.440Z,13.1
2023-03-24T13:29:30.981Z,13.3
2023-03-24T13:44:26.437Z,13.8
2023-03-24T13:59:26.443Z,13.9
2023-03-24T14:14:26.440Z,14.1
2023-03-24T14:29:26.407Z,14.7
2023-03-24T14:44:26.418Z,14.2
2023-03-24T14:59:26.423Z,13.1
2023-03-24T15:14:26.413Z,13
2023-03-24T15:29:26.406Z,11.8
2023-03-24T15:44:26.423Z,8
2023-03-24T15:59:26.403Z,8.6
2023-03-24T16:14:26.432Z,9.2
2023-03-24T16:29:26.463Z,11.8
2023-03-24T16:44:26.456Z,12.8
2023-03-24T16:59:26.432Z,12.3
2023-03-24T17:14:26.442Z,11.2
2023-03-24T17:29:26.437Z,10.8
2023-03-24T17:44:26.438Z,10.4
2023-03-24T17:59:26.423Z,10.2
2023-03-24T18:14:26.429Z,9.9
2023-03-24T18:29:26.402Z,9.8
2023-03-24T18:44:26.411Z,9.8
2023-03-24T18:59:26.425Z,8.6
2023-03-24T19:14:26.440Z,8.2
2023-03-24T19:29:26.418Z,8.6
2023-03-24T19:44:26.429Z,8.2
2023-03-24T19:59:26.421Z,8.2
2023-03-24T20:14:26.414Z,8.1
2023-03-24T20:29:26.437Z,8.5
2023-03-24T20:44:26.447Z,8.4
2023-03-24T20:59:26.412Z,8.2
2023-03-24T21:14:26.429Z,8.3
2023-03-24T21:29:26.451Z,8.6
2023-03-24T21:44:26.409Z,8.5
2023-03-24T21:59:26.432Z,8.1
2023-03-24T22:14:26.427Z,7.6
2023-03-24T22:29:26.434Z,7.7
2023-03-24T22:44:26.443Z,7.6
2023-03-24T22:59:26.423Z,7.6
2023-03-24T23:14:26.447Z,7.6
2023-03-24T23:29:26.432Z,7.6
2023-03-24T23:44:26.418Z,7.9
2023-03-24T23:59:26.402Z,8
